This is the latest recevied weather packets stored in our database for station/object SQ5LTL-2. If no packets are shown the sender has not sent any weather packets the latest 1 day(s).
| Time | Temp. | Humidity | Pressure | Rain* | Wind** | Luminosity | Snow |
|---|---|---|---|---|---|---|---|
| 1778089522 | 20° C | 56% | 1007.1 hPa | 0 mm | - | 8 W/m² | - |
| 1778088919 | 21.11° C | 53% | 1006.8 hPa | 0 mm | - | 11 W/m² | - |
| 1778088035 | 22.22° C | 50% | 1006.9 hPa | 0 mm | - | 24 W/m² | - |
| 1778086527 | 23.89° C | 42% | 1006.7 hPa | 0 mm | - | 47 W/m² | - |
| 1778086226 | 23.33° C | 42% | 1006.8 hPa | 0 mm | - | 60 W/m² | - |
| 1778085020 | 24.44° C | 41% | 1006.7 hPa | 0 mm | - | 24 W/m² | - |
| 1778084719 | 24.44° C | 40% | 1006.7 hPa | 0 mm | - | 25 W/m² | - |
| 1778084136 | 25° C | 39% | 1006.6 hPa | 0 mm | - | 51 W/m² | - |
| 1778082930 | 24.44° C | 41% | 1006.6 hPa | 0 mm | - | 56 W/m² | - |
| 1778082025 | 25° C | 40% | 1006.8 hPa | 0 mm | - | 100 W/m² | - |
| 1778081423 | 25.56° C | 40% | 1006.8 hPa | 0 mm | - | 122 W/m² | - |
| 1778079936 | 26.11° C | 39% | 1007 hPa | 0 mm | - | 162 W/m² | - |
| 1778079634 | 26.11° C | 39% | 1006.8 hPa | 0 mm | - | 220 W/m² | - |
| 1778076318 | 25.56° C | 40% | 1007 hPa | 0 mm | - | 223 W/m² | - |
| 1778075131 | 25.56° C | 41% | 1006.8 hPa | 0 mm | - | 173 W/m² | - |
| 1778073021 | 25° C | 43% | 1006.7 hPa | 0 mm | - | 332 W/m² | - |
| 1778071835 | 25.56° C | 41% | 1006.8 hPa | 0 mm | - | 254 W/m² | - |
| 1778070931 | 26.11° C | 40% | 1006.8 hPa | 0 mm | - | 542 W/m² | - |
| 1778070328 | 25.56° C | 41% | 1006.9 hPa | 0 mm | - | 299 W/m² | - |
| 1778069726 | 25.56° C | 41% | 1006.6 hPa | 0 mm | - | 351 W/m² | - |
| 1778069424 | 26.11° C | 40% | 1006.7 hPa | 0 mm | - | 571 W/m² | - |
| 1778069122 | 26.11° C | 40% | 1006.8 hPa | 0 mm | - | 434 W/m² | - |
| 1778068821 | 26.11° C | 40% | 1006.7 hPa | 0 mm | - | 557 W/m² | - |
| 1778068519 | 25.56° C | 41% | 1006.5 hPa | 0 mm | - | 388 W/m² | - |
| 1778067333 | 25.56° C | 39% | 1006.6 hPa | 0 mm | - | 340 W/m² | - |
* Rain latest hour (hover to see other rain measurements)
** Current wind speed in m/s (hover to see current wind gust speed)